Time;durP1;ratioP1;P1;durP2;ratioP2;P2;SDS_P1;SDS_P2;PMS_P1;PMS_P2;Temp;Humidity;BMP_temperature;BMP_pressure;BME280_temperature;BME280_humidity;BME280_pressure;Samples;Min_cycle;Max_cycle;Signal;HPM_P1;HPM_P2
2022/03/03 00:00:13;;;;;;;42.70;24.50;;;-4.50;99.90;;;;;;5114884;28;20252;-72
2022/03/03 00:02:41;;;;;;;43.70;23.70;;;-4.60;99.90;;;;;;5115407;28;20292;-72
2022/03/03 00:05:08;;;;;;;38.27;23.07;;;-4.20;99.90;;;;;;5116904;28;20198;-72
2022/03/03 00:07:35;;;;;;;46.40;24.87;;;-4.20;99.90;;;;;;5118108;28;20283;-72
2022/03/03 00:10:02;;;;;;;39.90;23.63;;;-4.30;99.90;;;;;;5117631;28;20202;-72
2022/03/03 00:12:28;;;;;;;41.80;21.87;;;-4.50;99.90;;;;;;5117530;28;20261;-72
2022/03/03 00:14:55;;;;;;;34.97;21.20;;;-4.40;99.90;;;;;;5117535;28;20193;-72
2022/03/03 00:17:23;;;;;;;36.27;22.47;;;-4.40;99.90;;;;;;5117429;28;20608;-73
2022/03/03 00:19:50;;;;;;;35.73;21.50;;;-4.30;99.90;;;;;;5117153;28;20234;-72
2022/03/03 00:22:17;;;;;;;30.53;19.43;;;-4.30;99.90;;;;;;5117096;28;20196;-72
2022/03/03 00:24:44;;;;;;;36.17;22.03;;;-4.20;99.90;;;;;;5117935;28;20606;-72
2022/03/03 00:27:11;;;;;;;33.47;21.07;;;-4.20;99.90;;;;;;5118348;28;20196;-72
2022/03/03 00:29:38;;;;;;;33.60;19.93;;;-4.30;99.90;;;;;;5117087;28;20648;-72
2022/03/03 00:32:06;;;;;;;32.60;19.93;;;-4.40;99.90;;;;;;5117325;28;20251;-72
2022/03/03 00:34:34;;;;;;;35.07;21.17;;;-4.50;99.90;;;;;;5117138;28;20279;-72
2022/03/03 00:37:00;;;;;;;36.10;20.97;;;-4.50;99.90;;;;;;5116997;28;20208;-72
2022/03/03 00:39:27;;;;;;;32.93;20.77;;;-4.50;99.90;;;;;;5117155;28;20200;-72
2022/03/03 00:41:54;;;;;;;33.53;19.33;;;-4.50;99.90;;;;;;5117358;28;20200;-72
2022/03/03 00:44:20;;;;;;;30.33;19.23;;;-4.60;99.90;;;;;;5117231;28;20200;-72
2022/03/03 00:46:47;;;;;;;33.63;20.13;;;-4.70;99.90;;;;;;5117001;28;20590;-72
2022/03/03 00:49:14;;;;;;;35.23;20.10;;;-4.50;99.90;;;;;;5116910;28;20225;-72
2022/03/03 00:51:41;;;;;;;32.43;19.83;;;-4.20;99.90;;;;;;5116665;28;20226;-71
2022/03/03 00:54:08;;;;;;;32.27;19.37;;;-4.20;99.90;;;;;;5116571;28;20224;-71
2022/03/03 00:56:35;;;;;;;32.80;20.80;;;-4.40;99.90;;;;;;5116785;28;20257;-71
2022/03/03 00:59:02;;;;;;;35.80;20.37;;;-4.50;99.90;;;;;;5116939;28;20247;-71
2022/03/03 01:01:28;;;;;;;31.90;19.07;;;-4.70;99.90;;;;;;5116421;28;20254;-71
2022/03/03 01:03:55;;;;;;;32.43;20.10;;;-4.80;99.90;;;;;;5116478;28;20195;-71
2022/03/03 01:06:22;;;;;;;32.57;19.77;;;-4.70;99.90;;;;;;5116715;28;20250;-71
2022/03/03 01:08:50;;;;;;;33.13;20.63;;;-4.50;99.90;;;;;;5116803;28;20217;-71
2022/03/03 01:11:17;;;;;;;37.13;21.40;;;-4.40;99.90;;;;;;5116498;28;20192;-73
2022/03/03 01:13:43;;;;;;;38.83;23.00;;;-4.40;99.90;;;;;;5116197;28;20227;-72
2022/03/03 01:16:10;;;;;;;35.30;21.87;;;-4.60;99.90;;;;;;5117189;28;20196;-72
2022/03/03 01:18:37;;;;;;;38.37;21.47;;;-4.70;99.90;;;;;;5118946;28;20199;-71
2022/03/03 01:21:04;;;;;;;37.50;21.13;;;-4.70;99.90;;;;;;5118413;28;20203;-71
2022/03/03 01:23:30;;;;;;;39.80;22.57;;;-4.80;99.90;;;;;;5118525;28;20668;-72
2022/03/03 01:25:58;;;;;;;39.03;22.20;;;-4.80;99.90;;;;;;5118223;28;20201;-71
2022/03/03 01:28:25;;;;;;;38.33;22.27;;;-4.90;99.90;;;;;;5116233;28;20670;-71
2022/03/03 01:30:52;;;;;;;37.03;21.43;;;-5.00;99.90;;;;;;5116315;28;20245;-71
2022/03/03 01:33:18;;;;;;;38.53;22.17;;;-5.00;99.90;;;;;;5116502;28;20216;-71
2022/03/03 01:35:45;;;;;;;40.80;22.77;;;-4.70;99.90;;;;;;5116771;28;20196;-71
2022/03/03 01:38:12;;;;;;;35.10;21.27;;;-4.60;99.90;;;;;;5116501;28;20241;-71
2022/03/03 01:40:39;;;;;;;38.17;21.33;;;-4.80;99.90;;;;;;5115944;28;20725;-71
2022/03/03 01:43:07;;;;;;;32.90;20.13;;;-5.00;99.90;;;;;;5116254;28;20200;-71
2022/03/03 01:45:34;;;;;;;36.87;20.17;;;-5.10;99.90;;;;;;5116001;28;20274;-71
2022/03/03 01:48:01;;;;;;;34.17;20.23;;;-5.30;99.90;;;;;;5115434;28;20197;-71
2022/03/03 01:50:28;;;;;;;35.53;20.43;;;-5.30;99.90;;;;;;5115917;28;20223;-71
2022/03/03 01:52:54;;;;;;;37.53;21.90;;;-5.40;99.90;;;;;;5115597;28;20200;-72
2022/03/03 01:55:22;;;;;;;35.67;21.03;;;-5.50;99.90;;;;;;5116276;28;20344;-71
2022/03/03 01:57:49;;;;;;;33.17;20.33;;;-5.50;99.90;;;;;;5125724;28;20196;-72
2022/03/03 02:00:19;;;;;;;37.37;20.60;;;-5.50;99.90;;;;;;5118055;28;20265;-72
2022/03/03 02:02:47;;;;;;;38.03;21.07;;;-5.50;99.90;;;;;;5124828;28;20199;-71
2022/03/03 02:05:14;;;;;;;33.07;19.70;;;-5.60;99.90;;;;;;5118619;28;20196;-72
2022/03/03 02:07:41;;;;;;;38.93;21.40;;;-5.60;99.90;;;;;;5124175;28;20200;-72
2022/03/03 02:10:08;;;;;;;36.07;21.30;;;-5.70;99.90;;;;;;5118895;28;20199;-72
2022/03/03 02:12:34;;;;;;;37.03;21.33;;;-5.70;99.90;;;;;;5120972;28;20207;-72
2022/03/03 02:15:01;;;;;;;36.87;21.07;;;-5.70;99.90;;;;;;5121530;28;20323;-72
2022/03/03 02:17:29;;;;;;;36.40;20.33;;;-5.50;99.90;;;;;;5122097;28;20195;-72
2022/03/03 02:19:56;;;;;;;33.90;20.27;;;-5.50;99.90;;;;;;5121087;28;20233;-72
2022/03/03 02:22:24;;;;;;;36.40;20.60;;;-5.50;99.90;;;;;;5121238;28;20199;-72
2022/03/03 02:24:51;;;;;;;33.93;19.50;;;-5.50;99.90;;;;;;5121646;28;20208;-71
2022/03/03 02:27:19;;;;;;;36.53;20.50;;;-5.50;99.90;;;;;;5119105;28;20236;-72
2022/03/03 02:29:46;;;;;;;35.87;21.43;;;-5.30;99.90;;;;;;5122213;28;20195;-72
2022/03/03 02:32:13;;;;;;;37.07;19.87;;;-5.30;99.90;;;;;;5118864;28;20199;-72
2022/03/03 02:34:48;;;;;;;32.43;19.43;;;-5.40;99.90;;;;;;5122764;28;20252;-71
2022/03/03 02:37:16;;;;;;;32.37;20.20;;;-5.20;99.90;;;;;;5118564;28;20227;-72
2022/03/03 02:39:44;;;;;;;34.23;20.47;;;-5.40;99.90;;;;;;5123893;28;20317;-72
2022/03/03 02:42:10;;;;;;;35.77;20.90;;;-5.50;99.90;;;;;;5117894;28;20598;-72
2022/03/03 02:44:37;;;;;;;36.17;20.47;;;-5.40;99.90;;;;;;5122743;28;20196;-72
2022/03/03 02:47:04;;;;;;;30.60;19.50;;;-5.50;99.90;;;;;;5118618;28;20196;-72
2022/03/03 02:49:31;;;;;;;34.67;19.70;;;-5.60;99.90;;;;;;5122977;28;20217;-72
2022/03/03 02:51:58;;;;;;;35.53;20.23;;;-5.70;99.90;;;;;;5118551;28;20605;-72
2022/03/03 02:54:24;;;;;;;33.13;19.50;;;-5.40;99.90;;;;;;5120870;28;20636;-72
2022/03/03 02:59:36;;;;;;;34.13;20.10;;;-5.20;99.90;;;;;;5115869;28;20198;-71
2022/03/03 03:02:03;;;;;;;34.90;20.00;;;-5.40;99.90;;;;;;5116725;28;20202;-71
2022/03/03 03:04:30;;;;;;;35.93;20.20;;;-5.60;99.90;;;;;;5114731;28;20260;-72
2022/03/03 03:06:57;;;;;;;33.73;20.77;;;-5.60;99.90;;;;;;5114283;28;20611;-71
2022/03/03 03:09:24;;;;;;;34.00;19.57;;;-5.60;99.90;;;;;;5114579;28;20195;-72
2022/03/03 03:11:52;;;;;;;31.27;19.30;;;-5.70;99.90;;;;;;5114518;28;20203;-72
2022/03/03 03:14:18;;;;;;;32.00;19.13;;;-5.80;99.90;;;;;;5114385;28;20245;-71
2022/03/03 03:16:45;;;;;;;34.47;20.50;;;-5.80;99.90;;;;;;5114320;28;20203;-71
2022/03/03 03:19:12;;;;;;;32.37;18.87;;;-5.80;99.90;;;;;;5113823;28;20751;-72
2022/03/03 03:21:38;;;;;;;36.50;20.83;;;-5.90;99.90;;;;;;5114011;28;20196;-72
2022/03/03 03:24:06;;;;;;;36.07;20.83;;;-5.90;99.90;;;;;;5113934;28;20302;-72
2022/03/03 03:26:32;;;;;;;36.93;20.17;;;-5.90;99.90;;;;;;5114162;28;20195;-72
2022/03/03 03:29:00;;;;;;;31.07;19.37;;;-5.80;99.90;;;;;;5113996;28;20203;-73
2022/03/03 03:31:27;;;;;;;32.33;19.97;;;-5.70;99.90;;;;;;5114272;28;20195;-72
2022/03/03 03:33:54;;;;;;;35.07;20.33;;;-5.60;99.90;;;;;;5114258;28;20219;-71
2022/03/03 03:36:21;;;;;;;39.30;21.33;;;-5.50;99.90;;;;;;5113842;28;20205;-71
2022/03/03 03:38:47;;;;;;;36.03;21.03;;;-5.60;99.90;;;;;;5114469;28;20223;-71
2022/03/03 03:41:14;;;;;;;33.30;20.10;;;-5.90;99.90;;;;;;5117868;28;20652;-71
2022/03/03 03:43:41;;;;;;;36.30;19.00;;;-5.80;99.90;;;;;;5118173;28;20268;-71
2022/03/03 03:46:09;;;;;;;36.50;20.20;;;-5.80;99.90;;;;;;5118059;28;20203;-71
2022/03/03 03:48:36;;;;;;;33.57;19.00;;;-5.90;99.90;;;;;;5118123;28;20199;-71
2022/03/03 03:51:02;;;;;;;35.83;19.97;;;-5.80;99.90;;;;;;5118036;28;20192;-71
2022/03/03 03:53:29;;;;;;;35.30;19.00;;;-5.80;99.90;;;;;;5118024;28;20204;-71
2022/03/03 03:55:56;;;;;;;30.10;18.33;;;-6.00;99.90;;;;;;5117777;28;20231;-71
2022/03/03 03:58:22;;;;;;;38.00;20.63;;;-6.00;99.90;;;;;;5117860;28;20261;-71
2022/03/03 04:00:49;;;;;;;32.57;19.27;;;-5.80;99.90;;;;;;5117445;28;20768;-71
2022/03/03 04:03:17;;;;;;;36.13;20.57;;;-5.80;99.90;;;;;;5117688;28;20199;-71
2022/03/03 04:05:44;;;;;;;32.80;19.13;;;-5.90;99.90;;;;;;5117794;28;20204;-71
2022/03/03 04:08:11;;;;;;;35.60;20.07;;;-6.00;99.90;;;;;;5117849;28;20196;-71
2022/03/03 04:10:37;;;;;;;32.53;19.10;;;-6.10;99.90;;;;;;5117895;28;20200;-71
2022/03/03 04:13:04;;;;;;;36.70;19.30;;;-6.10;99.90;;;;;;5117636;28;20252;-71
2022/03/03 04:15:31;;;;;;;33.33;19.30;;;-6.00;99.90;;;;;;5117800;28;20215;-71
2022/03/03 04:17:57;;;;;;;39.70;19.77;;;-5.90;99.90;;;;;;5117625;28;20200;-71
2022/03/03 04:20:27;;;;;;;35.00;19.90;;;-5.80;99.90;;;;;;5117408;28;20306;-71
2022/03/03 04:22:54;;;;;;;35.93;19.83;;;-5.60;99.90;;;;;;5120158;28;20203;-71
2022/03/03 04:25:20;;;;;;;36.97;20.57;;;-5.70;99.90;;;;;;5121303;28;20202;-71
2022/03/03 04:27:47;;;;;;;35.27;20.50;;;-5.80;99.90;;;;;;5121113;28;20654;-71
2022/03/03 04:30:15;;;;;;;34.90;20.10;;;-5.60;99.90;;;;;;5120623;28;20203;-71
2022/03/03 04:32:42;;;;;;;41.13;21.63;;;-5.50;99.90;;;;;;5120482;28;20195;-71
2022/03/03 04:35:10;;;;;;;35.40;20.30;;;-5.60;99.90;;;;;;5121061;28;20230;-71
2022/03/03 04:37:39;;;;;;;34.93;20.30;;;-5.60;99.90;;;;;;5120882;28;20200;-71
2022/03/03 04:40:07;;;;;;;34.47;19.63;;;-5.80;99.90;;;;;;5120682;28;20192;-71
2022/03/03 04:42:34;;;;;;;31.87;19.13;;;-5.80;99.90;;;;;;5120626;28;20276;-72
2022/03/03 04:45:01;;;;;;;32.67;19.93;;;-5.90;99.90;;;;;;5120343;28;20663;-71
2022/03/03 04:47:28;;;;;;;34.27;20.03;;;-5.80;99.90;;;;;;5117902;28;20196;-71
2022/03/03 04:49:54;;;;;;;32.80;19.90;;;-5.90;99.90;;;;;;5117102;28;20202;-71
2022/03/03 04:52:21;;;;;;;33.93;19.53;;;-6.00;99.90;;;;;;5117284;28;20278;-71
2022/03/03 04:54:50;;;;;;;40.30;21.27;;;-6.10;99.90;;;;;;5117117;28;20219;-71
2022/03/03 04:57:16;;;;;;;39.17;21.10;;;-5.90;99.90;;;;;;5116990;28;20207;-71
2022/03/03 04:59:43;;;;;;;38.30;22.10;;;-5.80;99.90;;;;;;5117098;28;20195;-71
2022/03/03 05:02:10;;;;;;;42.07;22.93;;;-5.90;99.90;;;;;;5116614;28;20199;-72
2022/03/03 05:04:37;;;;;;;40.60;23.17;;;-6.00;99.90;;;;;;5116718;28;20200;-72
2022/03/03 05:07:04;;;;;;;35.93;21.87;;;-6.00;99.90;;;;;;5116624;28;20323;-70
2022/03/03 05:09:31;;;;;;;42.13;23.73;;;-5.90;99.90;;;;;;5117194;28;20200;-71
2022/03/03 05:11:59;;;;;;;42.60;23.57;;;-5.90;99.90;;;;;;5116478;28;20584;-71
2022/03/03 05:14:26;;;;;;;40.70;22.20;;;-5.90;99.90;;;;;;5116173;27;20234;-71
2022/03/03 05:16:53;;;;;;;42.73;24.07;;;-5.80;99.90;;;;;;5118960;28;20225;-71
2022/03/03 05:19:20;;;;;;;47.50;22.77;;;-5.70;99.90;;;;;;5118991;28;20764;-71
2022/03/03 05:21:46;;;;;;;45.57;23.23;;;-5.80;99.90;;;;;;5119283;28;20204;-71
2022/03/03 05:24:13;;;;;;;37.80;21.10;;;-5.80;99.90;;;;;;5119663;28;20205;-71
2022/03/03 05:26:39;;;;;;;40.87;22.67;;;-5.90;99.90;;;;;;5119840;28;20196;-73
2022/03/03 05:29:08;;;;;;;37.20;22.13;;;-5.80;99.90;;;;;;5119100;28;20245;-73
2022/03/03 05:31:34;;;;;;;40.60;22.43;;;-6.00;99.90;;;;;;5118144;28;20282;-71
2022/03/03 05:34:03;;;;;;;40.13;22.40;;;-6.10;99.90;;;;;;5117023;28;20195;-71
2022/03/03 05:36:31;;;;;;;40.60;22.93;;;-6.20;99.90;;;;;;5115744;28;20223;-71
2022/03/03 05:38:59;;;;;;;43.20;22.57;;;-6.10;99.90;;;;;;5115726;28;20201;-71
2022/03/03 05:41:25;;;;;;;37.83;21.20;;;-6.00;99.90;;;;;;5115466;28;20195;-72
2022/03/03 05:43:55;;;;;;;40.67;22.20;;;-6.00;99.90;;;;;;5115197;28;20648;-72
2022/03/03 05:46:24;;;;;;;43.70;24.17;;;-6.10;99.90;;;;;;5116214;28;20670;-72
2022/03/03 05:48:51;;;;;;;42.40;23.30;;;-5.90;99.90;;;;;;5115843;28;20551;-72
2022/03/03 05:51:19;;;;;;;43.93;23.27;;;-5.70;99.90;;;;;;5115900;28;20204;-71
2022/03/03 05:53:46;;;;;;;45.50;25.83;;;-5.80;99.90;;;;;;5115333;28;20268;-72
2022/03/03 05:56:17;;;;;;;42.60;23.33;;;-5.70;99.90;;;;;;5115528;28;20223;-71
2022/03/03 05:58:47;;;;;;;40.10;21.87;;;-5.90;99.90;;;;;;5116374;28;20217;-71
2022/03/03 06:01:15;;;;;;;41.80;22.87;;;-6.00;99.90;;;;;;5116526;28;20199;-71
2022/03/03 06:03:47;;;;;;;43.13;22.97;;;-6.00;99.90;;;;;;5116010;28;20224;-71
2022/03/03 06:06:17;;;;;;;39.93;22.77;;;-5.90;99.90;;;;;;5115906;28;20191;-71
2022/03/03 06:08:57;;;;;;;42.40;23.77;;;-5.90;99.90;;;;;;5115192;28;20204;-71
2022/03/03 06:11:27;;;;;;;47.93;24.83;;;-5.90;99.90;;;;;;5115581;28;20229;-72
2022/03/03 06:13:57;;;;;;;44.20;23.17;;;-5.60;99.90;;;;;;5115194;28;20218;-72
2022/03/03 06:16:26;;;;;;;42.73;23.57;;;-5.60;99.90;;;;;;5115245;28;20219;-71
2022/03/03 06:18:54;;;;;;;43.00;25.57;;;-5.60;99.90;;;;;;5114934;28;20609;-71
2022/03/03 06:21:21;;;;;;;45.73;25.57;;;-5.50;99.90;;;;;;5115171;28;20606;-71
2022/03/03 06:23:47;;;;;;;41.67;24.27;;;-5.40;99.90;;;;;;5114608;28;20662;-71
2022/03/03 06:26:17;;;;;;;42.10;23.33;;;-5.40;99.90;;;;;;5115491;28;20245;-71
2022/03/03 06:28:44;;;;;;;49.27;24.60;;;-5.30;99.90;;;;;;5114849;28;20195;-72
2022/03/03 06:31:10;;;;;;;44.40;24.47;;;-5.30;99.90;;;;;;5114842;28;20195;-72
2022/03/03 06:33:37;;;;;;;45.27;23.73;;;-5.20;99.90;;;;;;5114719;28;20195;-72
2022/03/03 06:36:06;;;;;;;44.90;24.30;;;-4.90;99.90;;;;;;5115468;28;20625;-72
2022/03/03 06:38:33;;;;;;;41.47;22.83;;;-4.90;99.90;;;;;;5115242;28;20249;-72
2022/03/03 06:41:01;;;;;;;43.37;21.93;;;-4.80;99.90;;;;;;5114532;28;20670;-71
2022/03/03 06:43:29;;;;;;;39.80;23.40;;;-4.80;99.90;;;;;;5114631;28;20192;-71
2022/03/03 06:45:57;;;;;;;46.40;24.57;;;-4.60;99.90;;;;;;5114588;28;20201;-72
2022/03/03 06:48:23;;;;;;;41.60;23.43;;;-4.50;99.90;;;;;;5115101;28;20200;-72
2022/03/03 06:50:52;;;;;;;35.70;22.33;;;-4.40;99.90;;;;;;5114941;28;20192;-71
2022/03/03 06:53:26;;;;;;;37.10;22.53;;;-4.40;99.90;;;;;;5114837;28;20197;-71
2022/03/03 06:55:55;;;;;;;39.30;22.07;;;-4.30;99.90;;;;;;5114733;28;20303;-72
2022/03/03 06:58:25;;;;;;;37.30;21.63;;;-4.20;99.90;;;;;;5114569;28;20710;-72
2022/03/03 07:00:53;;;;;;;41.77;23.33;;;-4.20;99.90;;;;;;5096401;28;20239;-72
2022/03/03 07:03:22;;;;;;;36.10;21.50;;;-4.00;99.90;;;;;;5114496;28;20603;-72
2022/03/03 07:05:50;;;;;;;41.60;22.60;;;-4.00;99.90;;;;;;5114357;28;20640;-72
2022/03/03 07:08:17;;;;;;;38.30;21.43;;;-3.80;99.90;;;;;;5114231;28;20204;-72
2022/03/03 07:10:47;;;;;;;37.70;22.23;;;-3.80;99.90;;;;;;5114177;28;20196;-72
2022/03/03 07:13:16;;;;;;;35.93;21.30;;;-3.70;99.90;;;;;;5114196;28;20201;-72
2022/03/03 07:15:49;;;;;;;36.83;22.77;;;-3.60;99.90;;;;;;5118427;28;20226;-71
2022/03/03 07:18:19;;;;;;;40.73;21.60;;;-3.40;99.90;;;;;;5118627;28;20288;-71
2022/03/03 07:20:52;;;;;;;36.43;21.80;;;-3.30;99.90;;;;;;5118577;28;20230;-71
2022/03/03 07:23:36;;;;;;;37.47;21.10;;;-3.20;99.90;;;;;;5118636;28;20198;-71
2022/03/03 07:26:07;;;;;;;34.50;19.83;;;-3.10;99.90;;;;;;5118724;28;20197;-71
2022/03/03 07:28:35;;;;;;;35.20;20.13;;;-3.00;99.90;;;;;;5117757;28;20765;-71
2022/03/03 07:31:04;;;;;;;30.33;19.50;;;-2.90;99.90;;;;;;5117933;28;20290;-71
2022/03/03 07:33:44;;;;;;;33.10;20.13;;;-2.80;99.90;;;;;;5118308;28;20277;-71
2022/03/03 07:36:14;;;;;;;33.43;20.77;;;-2.70;99.90;;;;;;5118441;28;20222;-71
2022/03/03 07:38:40;;;;;;;33.10;20.43;;;-2.60;99.90;;;;;;5118570;28;20324;-71
2022/03/03 07:41:09;;;;;;;33.63;20.97;;;-2.50;99.90;;;;;;5123483;28;20203;-71
2022/03/03 07:43:36;;;;;;;37.80;20.33;;;-2.40;99.90;;;;;;5124695;28;20241;-71
2022/03/03 07:46:03;;;;;;;36.63;20.17;;;-2.30;99.90;;;;;;5125745;28;20204;-72
2022/03/03 07:48:32;;;;;;;32.17;21.40;;;-2.20;99.90;;;;;;5125761;28;20217;-72
2022/03/03 07:51:01;;;;;;;38.57;23.93;;;-2.10;99.90;;;;;;5125152;28;20200;-72
2022/03/03 07:53:28;;;;;;;43.40;21.70;;;-1.90;99.90;;;;;;5124686;28;20229;-72
2022/03/03 07:56:02;;;;;;;45.00;22.17;;;-1.80;99.90;;;;;;5119721;28;20223;-71
2022/03/03 07:58:33;;;;;;;53.93;33.23;;;-1.70;99.90;;;;;;5118790;28;20268;-72
2022/03/03 08:01:03;;;;;;;35.87;22.67;;;-1.50;99.90;;;;;;5118014;28;20655;-72
2022/03/03 08:03:31;;;;;;;40.27;23.17;;;-1.40;99.90;;;;;;5117824;28;20320;-72
2022/03/03 08:05:58;;;;;;;39.00;23.63;;;-1.20;99.90;;;;;;5118142;28;20200;-72
2022/03/03 08:08:27;;;;;;;42.43;24.20;;;-1.00;99.90;;;;;;5118772;28;20196;-72
2022/03/03 08:10:58;;;;;;;44.67;24.07;;;-0.80;99.90;;;;;;5118724;28;20265;-72
2022/03/03 08:13:27;;;;;;;35.37;22.17;;;-0.60;99.90;;;;;;5118803;28;20203;-72
2022/03/03 08:15:56;;;;;;;35.60;22.90;;;-0.40;99.90;;;;;;5117621;28;20231;-73
2022/03/03 08:18:26;;;;;;;37.53;23.63;;;-0.30;99.90;;;;;;5117468;28;20203;-72
2022/03/03 08:20:54;;;;;;;38.87;23.07;;;0.00;99.90;;;;;;5117685;28;20347;-73
2022/03/03 08:23:21;;;;;;;39.07;22.77;;;0.10;99.90;;;;;;5117537;28;20650;-71
2022/03/03 08:25:48;;;;;;;35.97;22.03;;;0.30;99.90;;;;;;5117115;28;20253;-74
2022/03/03 08:28:17;;;;;;;37.67;21.80;;;0.50;99.90;;;;;;5117537;28;20222;-73
2022/03/03 08:30:45;;;;;;;42.37;22.90;;;0.60;99.90;;;;;;5117639;28;20202;-72
2022/03/03 08:33:19;;;;;;;44.13;23.43;;;0.90;99.90;;;;;;5117408;28;20199;-73
2022/03/03 08:35:53;;;;;;;34.77;22.10;;;1.10;99.90;;;;;;5117336;28;20682;-73
2022/03/03 08:38:28;;;;;;;36.27;21.47;;;1.40;99.90;;;;;;5116812;28;20725;-72
2022/03/03 08:40:58;;;;;;;49.17;21.73;;;1.60;99.90;;;;;;5116965;28;20196;-71
2022/03/03 08:43:28;;;;;;;39.00;21.60;;;2.00;99.90;;;;;;5116776;28;20643;-74
2022/03/03 08:45:57;;;;;;;33.47;21.03;;;2.20;99.90;;;;;;5116368;28;20200;-74
2022/03/03 08:48:30;;;;;;;35.90;20.47;;;2.40;99.90;;;;;;5117310;28;20616;-73
2022/03/03 08:50:58;;;;;;;37.47;21.57;;;2.70;99.90;;;;;;5116376;28;20592;-73
2022/03/03 08:53:25;;;;;;;32.27;19.83;;;3.00;99.90;;;;;;5116931;28;20197;-73
2022/03/03 08:55:53;;;;;;;26.03;18.20;;;3.30;99.90;;;;;;5116583;28;20225;-74
2022/03/03 08:58:20;;;;;;;27.77;18.43;;;3.60;99.90;;;;;;5111448;28;20195;-71
2022/03/03 09:00:48;;;;;;;29.33;19.13;;;3.80;99.90;;;;;;5106871;28;20199;-72
2022/03/03 09:03:15;;;;;;;23.30;17.60;;;4.00;99.90;;;;;;5116404;28;20203;-73
2022/03/03 09:05:43;;;;;;;24.23;16.20;;;4.30;99.90;;;;;;5119221;28;20245;-72
2022/03/03 09:08:10;;;;;;;22.83;16.10;;;4.60;99.90;;;;;;5121899;28;20199;-73
2022/03/03 09:10:36;;;;;;;27.10;15.77;;;4.70;98.90;;;;;;5123051;28;20191;-72
2022/03/03 09:13:03;;;;;;;22.53;14.40;;;5.00;98.60;;;;;;5122373;28;20655;-73
2022/03/03 09:15:31;;;;;;;20.50;14.73;;;5.30;93.00;;;;;;5122060;28;20195;-73
2022/03/03 09:17:58;;;;;;;24.33;15.40;;;5.60;91.10;;;;;;5117745;28;20217;-72
2022/03/03 09:20:24;;;;;;;18.10;13.53;;;6.00;83.30;;;;;;5115545;28;20228;-73
2022/03/03 09:22:53;;;;;;;17.57;13.07;;;6.10;73.00;;;;;;5115656;28;20196;-73
2022/03/03 09:25:19;;;;;;;16.87;13.33;;;6.30;65.60;;;;;;5114813;28;20253;-72
2022/03/03 09:27:46;;;;;;;16.93;13.57;;;6.60;62.10;;;;;;5114806;28;20195;-73
2022/03/03 09:30:14;;;;;;;17.70;13.23;;;6.80;56.80;;;;;;5114690;28;20203;-74
2022/03/03 09:32:41;;;;;;;18.93;14.20;;;7.10;55.10;;;;;;5114850;28;20198;-74
2022/03/03 09:35:09;;;;;;;24.10;15.30;;;7.20;55.40;;;;;;5114650;28;20207;-74
2022/03/03 09:37:35;;;;;;;27.90;14.90;;;7.40;58.70;;;;;;5113402;28;20288;-73
2022/03/03 09:40:05;;;;;;;22.67;14.40;;;7.60;57.70;;;;;;5114434;28;20245;-72
2022/03/03 09:42:34;;;;;;;18.60;14.07;;;7.70;56.60;;;;;;5114357;28;20532;-74
2022/03/03 09:45:01;;;;;;;19.83;13.90;;;8.00;54.30;;;;;;5114065;28;20191;-72
2022/03/03 09:47:27;;;;;;;25.73;14.93;;;8.20;50.70;;;;;;5113897;28;20282;-73
2022/03/03 09:49:54;;;;;;;21.13;14.90;;;8.40;50.60;;;;;;5114259;28;20200;-73
2022/03/03 09:52:21;;;;;;;18.53;15.57;;;8.30;46.80;;;;;;5114060;28;20253;-73
2022/03/03 09:54:51;;;;;;;19.87;14.40;;;8.50;47.30;;;;;;5114062;28;20196;-74
2022/03/03 09:57:19;;;;;;;17.25;14.23;;;8.70;45.90;;;;;;5114001;28;20219;-74
2022/03/03 09:59:46;;;;;;;15.30;13.50;;;9.10;43.10;;;;;;5113772;28;20700;-74
2022/03/03 10:02:13;;;;;;;17.20;14.30;;;9.30;42.80;;;;;;5114093;28;20252;-73
2022/03/03 10:04:39;;;;;;;16.77;14.13;;;9.50;41.40;;;;;;5113960;28;20203;-74
2022/03/03 10:07:08;;;;;;;19.30;14.57;;;9.60;39.50;;;;;;5113739;28;20657;-74
2022/03/03 10:09:59;;;;;;;18.40;14.15;;;9.80;39.40;;;;;;5113049;28;20196;-75
2022/03/03 10:12:26;;;;;;;15.98;13.98;;;10.00;37.10;;;;;;5112820;28;20239;-74
2022/03/03 10:14:58;;;;;;;15.82;13.65;;;10.40;32.80;;;;;;5113986;28;20195;-75
2022/03/03 10:17:35;;;;;;;14.15;12.45;;;10.60;32.50;;;;;;5113557;28;20231;-75
2022/03/03 10:20:04;;;;;;;15.10;13.60;;;10.80;28.10;;;;;;5113639;28;20272;-74
2022/03/03 10:22:40;;;;;;;15.10;13.52;;;10.80;29.60;;;;;;5113742;28;20199;-74
2022/03/03 10:25:07;;;;;;;15.63;14.13;;;11.00;28.00;;;;;;5113917;28;20286;-74
2022/03/03 10:27:35;;;;;;;15.32;13.73;;;11.20;28.10;;;;;;5113611;28;20658;-74
2022/03/03 10:30:06;;;;;;;15.40;13.90;;;11.30;27.30;;;;;;5113634;28;20195;-74
2022/03/03 10:32:35;;;;;;;15.35;13.75;;;11.60;26.60;;;;;;5113736;28;20199;-75
2022/03/03 10:35:03;;;;;;;17.98;15.95;;;11.90;25.70;;;;;;5113369;28;20196;-75
2022/03/03 10:37:32;;;;;;;15.15;13.30;;;12.40;25.80;;;;;;5113533;28;20223;-74
2022/03/03 10:40:01;;;;;;;16.05;14.05;;;12.90;24.60;;;;;;5112354;28;20677;-75
2022/03/03 10:42:28;;;;;;;15.75;13.25;;;13.10;23.60;;;;;;5113389;28;20248;-75
2022/03/03 10:45:09;;;;;;;14.63;13.23;;;13.90;24.20;;;;;;5113425;28;20207;-75
2022/03/03 10:47:36;;;;;;;14.18;12.82;;;14.90;23.20;;;;;;5113278;28;20196;-75
2022/03/03 10:50:04;;;;;;;14.02;12.63;;;15.00;21.40;;;;;;5113559;28;20198;-75
2022/03/03 10:52:35;;;;;;;13.50;12.20;;;15.60;19.90;;;;;;5113336;28;20207;-75
2022/03/03 10:55:06;;;;;;;14.65;13.15;;;15.60;19.20;;;;;;5113426;28;20202;-75
2022/03/03 10:57:38;;;;;;;13.82;12.38;;;15.70;19.10;;;;;;5113121;28;20223;-75
2022/03/03 11:00:09;;;;;;;12.55;11.20;;;16.60;17.00;;;;;;5113266;28;20199;-75
2022/03/03 11:02:37;;;;;;;13.68;12.38;;;16.80;15.30;;;;;;5113523;28;20303;-75
2022/03/03 11:05:05;;;;;;;16.25;13.43;;;17.10;15.20;;;;;;5113313;28;20196;-75
2022/03/03 11:07:33;;;;;;;13.90;12.52;;;17.40;15.20;;;;;;5113105;28;20195;-74
2022/03/03 11:10:01;;;;;;;13.00;11.70;;;17.30;14.20;;;;;;5112914;28;20597;-73
2022/03/03 11:12:28;;;;;;;12.93;11.73;;;17.30;13.60;;;;;;5112978;28;20559;-74
2022/03/03 11:14:55;;;;;;;12.98;11.70;;;17.20;14.60;;;;;;5113085;28;20204;-75
2022/03/03 11:17:24;;;;;;;13.57;12.35;;;17.20;14.70;;;;;;5113198;28;20228;-75
2022/03/03 11:19:52;;;;;;;14.73;12.40;;;18.20;14.30;;;;;;5112876;28;20230;-76
2022/03/03 11:22:19;;;;;;;13.32;11.98;;;18.10;13.30;;;;;;5113155;28;20199;-76
2022/03/03 11:24:47;;;;;;;12.55;11.40;;;18.90;14.00;;;;;;5113771;28;20244;-74
2022/03/03 11:27:14;;;;;;;9.82;8.93;;;19.80;11.90;;;;;;5113477;28;20256;-75
2022/03/03 11:29:40;;;;;;;12.45;10.95;;;19.70;9.80;;;;;;5113328;28;20628;-74
2022/03/03 11:32:09;;;;;;;12.35;11.15;;;18.10;9.80;;;;;;5112850;28;20255;-73
2022/03/03 11:34:49;;;;;;;11.00;9.88;;;19.00;10.60;;;;;;5112988;28;20581;-75
2022/03/03 11:37:19;;;;;;;10.93;9.93;;;18.90;8.90;;;;;;5113114;28;20713;-74
2022/03/03 11:39:49;;;;;;;10.85;9.75;;;18.90;8.80;;;;;;5112785;28;20209;-75
2022/03/03 11:42:25;;;;;;;11.70;10.60;;;19.20;8.10;;;;;;5112911;28;20196;-76
2022/03/03 11:44:54;;;;;;;14.20;12.00;;;19.30;8.40;;;;;;5112891;28;20607;-75
2022/03/03 11:47:23;;;;;;;14.60;13.18;;;20.00;11.20;;;;;;5112760;28;20200;-74
2022/03/03 11:50:25;;;;;;;17.13;13.57;;;21.10;10.90;;;;;;5112569;28;20597;-73
2022/03/03 11:53:14;;;;;;;18.13;13.95;;;21.00;10.30;;;;;;5112716;28;20195;-75
2022/03/03 11:55:43;;;;;;;16.42;13.07;;;21.50;9.30;;;;;;5112774;28;20566;-75
2022/03/03 11:58:12;;;;;;;14.93;13.32;;;21.60;8.90;;;;;;5112349;28;20609;-74
2022/03/03 12:00:41;;;;;;;16.17;14.55;;;21.80;8.50;;;;;;5114207;28;20556;-74
2022/03/03 12:03:09;;;;;;;17.38;15.57;;;21.70;9.20;;;;;;5116228;28;20195;-76
2022/03/03 12:05:40;;;;;;;16.83;15.13;;;21.60;9.60;;;;;;5116627;28;20244;-76
2022/03/03 12:08:34;;;;;;;16.63;14.98;;;21.30;10.20;;;;;;5116433;28;20207;-76
2022/03/03 12:11:07;;;;;;;16.17;14.70;;;22.00;10.20;;;;;;5116102;28;20203;-75
2022/03/03 12:13:35;;;;;;;16.90;15.13;;;21.50;9.40;;;;;;5116214;28;20249;-75
2022/03/03 12:16:23;;;;;;;16.48;14.85;;;21.80;9.60;;;;;;5116229;28;20195;-75
2022/03/03 12:19:04;;;;;;;16.13;14.52;;;22.10;8.60;;;;;;5115930;28;20219;-74
2022/03/03 12:21:33;;;;;;;16.85;15.00;;;22.50;8.90;;;;;;5115963;28;20199;-74
2022/03/03 12:24:27;;;;;;;18.23;15.25;;;22.10;8.80;;;;;;5115938;28;20646;-75
2022/03/03 12:27:08;;;;;;;14.75;13.40;;;22.60;7.80;;;;;;5116130;28;20199;-75
2022/03/03 12:29:37;;;;;;;13.50;12.20;;;22.60;6.60;;;;;;5116147;28;20196;-75
2022/03/03 12:32:44;;;;;;;13.82;12.60;;;22.60;6.60;;;;;;5115791;28;20554;-74
2022/03/03 12:35:23;;;;;;;14.75;13.20;;;22.70;6.40;;;;;;5115838;28;20199;-76
2022/03/03 12:37:51;;;;;;;16.05;12.57;;;22.70;6.80;;;;;;5115661;28;20231;-75